Time;durP1;ratioP1;P1;durP2;ratioP2;P2;SDS_P1;SDS_P2;PMS_P1;PMS_P2;Temp;Humidity;BMP_temperature;BMP_pressure;BME280_temperature;BME280_humidity;BME280_pressure;Samples;Min_cycle;Max_cycle;Signal;HPM_P1;HPM_P2
2023/10/09 00:11:13;;;;;;;3.90;1.50;;;;;;;;;;20563016;28;20719;-75
2023/10/09 00:21:12;;;;;;;4.70;1.60;;;;;;;;;;20555417;28;20762;-75
2023/10/09 00:31:15;;;;;;;3.00;1.50;;;;;;;;;;20576772;28;20212;-75
2023/10/09 00:41:21;;;;;;;4.17;1.17;;;;;;;;;;20571346;28;20228;-75
2023/10/09 00:51:24;;;;;;;4.00;1.70;;;16.80;99.90;;;;;;20577232;28;20272;-75
2023/10/09 01:01:34;;;;;;;2.77;1.40;;;;;;;;;;20556336;28;20237;-75
2023/10/09 01:11:48;;;;;;;3.13;1.40;;;;;;;;;;20573115;28;20290;-75
2023/10/09 01:21:52;;;;;;;5.60;1.50;;;17.00;99.90;;;;;;20580016;28;20220;-75
2023/10/09 01:31:55;;;;;;;2.77;1.37;;;;;;;;;;20581226;28;20217;-75
2023/10/09 01:41:58;;;;;;;3.93;1.50;;;;;;;;;;20582990;28;20282;-75
2023/10/09 01:52:03;;;;;;;4.13;1.63;;;;;;;;;;20586950;28;20217;-76
2023/10/09 02:02:15;;;;;;;2.97;1.60;;;;;;;;;;20581980;28;20220;-75
2023/10/09 02:12:17;;;;;;;3.13;1.37;;;;;;;;;;20574243;28;20604;-75
2023/10/09 02:22:20;;;;;;;3.93;1.50;;;;;;;;;;20581709;28;20299;-75
2023/10/09 02:32:25;;;;;;;3.37;1.80;;;;;;;;;;20585182;28;20302;-75
2023/10/09 02:42:28;;;;;;;3.23;1.50;;;;;;;;;;20596073;28;20283;-76
2023/10/09 02:52:40;;;;;;;5.83;1.83;;;;;;;;;;20592867;28;20271;-75
2023/10/09 03:02:41;;;;;;;3.87;1.23;;;;;;;;;;20599819;28;20220;-76
2023/10/09 03:12:44;;;;;;;4.90;1.50;;;;;;;;;;20561389;28;20235;-76
2023/10/09 03:22:47;;;;;;;5.67;1.57;;;;;;;;;;20574217;28;20244;-75
2023/10/09 03:32:52;;;;;;;6.63;1.43;;;;;;;;;;20545124;28;20221;-74
2023/10/09 03:42:54;;;;;;;3.80;1.60;;;;;;;;;;20563032;28;20221;-76
2023/10/09 03:52:56;;;;;;;4.97;2.00;;;;;;;;;;20553116;28;20232;-75
2023/10/09 04:02:58;;;;;;;3.47;1.80;;;;;;;;;;20559301;28;20220;-75
2023/10/09 04:13:03;;;;;;;7.60;2.00;;;;;;;;;;20544575;28;20216;-75
2023/10/09 04:23:05;;;;;;;2.67;1.57;;;;;;;;;;20574919;28;20235;-75
2023/10/09 04:33:42;;;;;;;7.33;1.77;;;;;;;;;;20543613;28;20734;-76
2023/10/09 04:43:35;;;;;;;3.43;1.50;;;;;;;;;;20556552;28;20691;-75
2023/10/09 04:53:43;;;;;;;3.97;1.37;;;;;;;;;;20548293;28;20642;-76
2023/10/09 05:03:45;;;;;;;2.57;1.20;;;;;;;;;;20549944;28;20221;-75
2023/10/09 05:13:57;;;;;;;4.07;1.63;;;;;;;;;;20570873;28;20232;-76
2023/10/09 05:34:19;;;;;;;4.50;1.40;;;;;;;;;;20619810;28;20232;-76
2023/10/09 06:05:40;;;;;;;2.70;1.40;;;;;;;;;;20619705;28;20239;-75
2023/10/09 06:15:51;;;;;;;6.03;1.30;;;;;;;;;;20578628;28;20228;-76
2023/10/09 06:25:53;;;;;;;3.60;1.30;;;;;;;;;;20587195;28;20703;-76
2023/10/09 06:35:54;;;;;;;3.40;1.47;;;;;;;;;;20601071;28;20340;-75
2023/10/09 06:45:58;;;;;;;4.77;1.73;;;;;;;;;;20593174;28;20295;-76
2023/10/09 06:56:05;;;;;;;6.73;1.50;;;;;;;;;;20565937;28;20269;-76
2023/10/09 07:06:09;;;;;;;5.07;1.50;;;16.20;99.90;;;;;;20544697;28;20231;-77
2023/10/09 07:16:23;;;;;;;7.33;1.60;;;;;;;;;;20552376;28;20221;-76
2023/10/09 07:26:36;;;;;;;3.73;1.40;;;;;;;;;;20556302;28;20279;-76
2023/10/09 07:36:38;;;;;;;6.40;1.90;;;;;;;;;;20587988;28;20247;-76
2023/10/09 07:46:52;;;;;;;3.33;1.40;;;;;;;;;;20592057;28;20271;-76
2023/10/09 07:57:03;;;;;;;3.70;1.37;;;;;;;;;;20579254;28;20243;-77
2023/10/09 08:07:25;;;;;;;7.70;2.00;;;16.50;99.90;;;;;;20556997;28;20274;-75
2023/10/09 08:17:29;;;;;;;3.23;1.57;;;;;;;;;;20572250;28;20692;-75
2023/10/09 08:37:32;;;;;;;5.00;1.97;;;;;;;;;;20546626;28;20247;-76
2023/10/09 08:47:35;;;;;;;6.43;1.67;;;17.60;99.90;;;;;;20550915;28;20539;-76
2023/10/09 08:57:40;;;;;;;5.87;1.30;;;17.60;99.90;;;;;;20561058;28;20253;-76
2023/10/09 09:07:42;;;;;;;3.97;1.87;;;;;;;;;;20550853;28;20224;-76
2023/10/09 09:17:45;;;;;;;3.53;1.23;;;;;;;;;;20552834;28;20224;-76
2023/10/09 09:27:55;;;;;;;3.63;1.60;;;;;;;;;;20528294;28;20289;-76
2023/10/09 09:38:03;;;;;;;4.00;1.60;;;;;;;;;;20531920;28;20278;-76
2023/10/09 09:48:06;;;;;;;3.80;1.40;;;;;;;;;;20563584;28;20213;-76
2023/10/09 09:58:18;;;;;;;4.77;1.63;;;;;;;;;;20569092;28;20270;-76
2023/10/09 10:08:21;;;;;;;8.47;1.53;;;18.50;99.90;;;;;;20553172;28;20213;-76
2023/10/09 10:18:24;;;;;;;3.53;1.50;;;;;;;;;;20573756;28;20220;-76
2023/10/09 10:28:39;;;;;;;3.20;1.60;;;;;;;;;;20567538;28;20221;-76
2023/10/09 10:38:49;;;;;;;7.43;1.70;;;;;;;;;;20557338;28;20215;-76
2023/10/09 10:48:59;;;;;;;3.30;1.37;;;;;;;;;;20564632;28;20252;-75
2023/10/09 11:09:35;;;;;;;4.43;1.60;;;18.80;99.90;;;;;;20591782;28;20209;-75
2023/10/09 11:19:31;;;;;;;3.30;1.00;;;;;;;;;;20554364;28;20228;-76
2023/10/09 11:39:52;;;;;;;2.60;1.20;;;;;;;;;;20602585;28;20295;-66
2023/10/09 11:50:11;;;;;;;4.20;1.27;;;;;;;;;;20585749;28;20221;-65
2023/10/09 12:00:29;;;;;;;4.50;1.53;;;;;;;;;;20591037;28;20270;-66
2023/10/09 12:10:31;;;;;;;5.63;1.67;;;;;;;;;;20584601;28;20273;-65
2023/10/09 12:20:34;;;;;;;6.50;2.13;;;20.60;99.90;;;;;;20568592;28;20234;-65
2023/10/09 12:30:39;;;;;;;3.60;1.50;;;;;;;;;;20538338;28;20230;-66
2023/10/09 12:40:50;;;;;;;3.50;1.20;;;;;;;;;;20568625;28;20611;-66
2023/10/09 12:50:53;;;;;;;2.57;1.00;;;;;;;;;;20567872;28;20218;-66
2023/10/09 13:00:55;;;;;;;5.33;1.63;;;;;;;;;;20532161;28;20656;-66
2023/10/09 13:11:00;;;;;;;1.70;1.00;;;;;;;;;;20556674;28;20218;-65
2023/10/09 13:21:05;;;;;;;7.37;1.43;;;;;;;;;;20577969;28;20280;-66
2023/10/09 13:31:10;;;;;;;1.93;0.90;;;;;;;;;;20535118;28;20233;-66
2023/10/09 13:41:13;;;;;;;3.27;1.50;;;20.60;99.90;;;;;;20555072;28;20781;-67
2023/10/09 13:51:18;;;;;;;3.13;1.10;;;;;;;;;;20579321;28;20225;-65
2023/10/09 14:01:32;;;;;;;5.97;1.27;;;21.50;99.90;;;;;;20567061;28;20215;-64
2023/10/09 14:11:44;;;;;;;3.23;1.47;;;21.50;99.90;;;;;;20569531;28;20226;-64
2023/10/09 14:21:49;;;;;;;2.83;1.50;;;;;;;;;;20559442;28;20221;-64
2023/10/09 14:32:00;;;;;;;3.80;1.60;;;;;;;;;;20572186;28;20675;-64
2023/10/09 14:42:09;;;;;;;3.60;1.60;;;;;;;;;;20576001;28;20220;-63
2023/10/09 14:52:12;;;;;;;3.93;1.30;;;;;;;;;;20586786;28;20694;-63
2023/10/09 15:02:14;;;;;;;2.73;1.20;;;;;;;;;;20541071;28;20284;-63
2023/10/09 15:12:19;;;;;;;3.63;1.20;;;;;;;;;;20590828;28;20227;-64
2023/10/09 15:22:21;;;;;;;4.33;1.63;;;;;;;;;;20592395;28;20289;-64
2023/10/09 15:32:24;;;;;;;3.43;1.50;;;;;;;;;;20578035;28;20264;-64
2023/10/09 15:42:26;;;;;;;4.27;1.40;;;;;;;;;;20587233;28;20705;-64
2023/10/09 15:52:28;;;;;;;2.60;1.43;;;;;;;;;;20589564;28;20221;-63
2023/10/09 16:02:30;;;;;;;2.83;1.50;;;;;;;;;;20544895;28;20334;-64
2023/10/09 16:12:33;;;;;;;4.93;1.97;;;;;;;;;;20573078;28;20242;-63
2023/10/09 16:22:35;;;;;;;3.80;1.60;;;;;;;;;;20561266;28;20257;-64
2023/10/09 16:32:38;;;;;;;6.05;1.35;;;;;;;;;;20540191;28;20230;-64
2023/10/09 16:42:42;;;;;;;4.10;1.50;;;;;;;;;;20576454;28;20223;-63
2023/10/09 16:52:44;;;;;;;4.30;1.70;;;;;;;;;;20543675;28;20215;-63
2023/10/09 17:02:49;;;;;;;3.23;1.50;;;;;;;;;;20573308;28;20294;-64
2023/10/09 17:12:52;;;;;;;2.07;1.27;;;;;;;;;;20547917;28;20217;-64
2023/10/09 17:22:59;;;;;;;2.93;1.30;;;20.90;99.90;;;;;;20554211;28;20239;-65
2023/10/09 17:33:01;;;;;;;2.97;1.10;;;;;;;;;;20560709;28;20232;-65
2023/10/09 17:43:05;;;;;;;4.70;1.70;;;;;;;;;;20578100;28;20225;-65
2023/10/09 17:53:06;;;;;;;3.63;1.50;;;;;;;;;;20577266;28;20227;-65
2023/10/09 18:03:08;;;;;;;4.97;1.40;;;;;;;;;;20616772;23;20289;-77
2023/10/09 18:13:11;;;;;;;2.33;1.40;;;;;;;;;;20630606;28;20226;-77
2023/10/09 18:23:13;;;;;;;3.30;1.80;;;;;;;;;;20636448;28;20227;-79
2023/10/09 18:33:14;;;;;;;2.50;1.40;;;;;;;;;;20643521;28;20245;-78
2023/10/09 18:43:19;;;;;;;2.90;1.60;;;;;;;;;;20645828;28;20252;-78
2023/10/09 18:53:21;;;;;;;7.37;1.70;;;;;;;;;;20646493;28;20583;-78
2023/10/09 19:03:23;;;;;;;3.30;1.53;;;;;;;;;;20649976;28;20623;-78
2023/10/09 19:13:25;;;;;;;4.57;1.37;;;;;;;;;;20644637;28;20225;-77
2023/10/09 19:23:28;;;;;;;4.20;1.60;;;;;;;;;;20637198;28;20311;-77
2023/10/09 19:33:30;;;;;;;3.17;1.60;;;;;;;;;;20631362;28;20249;-76
2023/10/09 19:43:32;;;;;;;3.47;1.50;;;;;;;;;;20656638;28;20234;-78
2023/10/09 19:53:36;;;;;;;3.33;1.30;;;;;;;;;;20660966;28;20764;-78
2023/10/09 20:03:38;;;;;;;3.57;1.30;;;;;;;;;;20657973;28;20222;-77
2023/10/09 20:13:41;;;;;;;4.10;1.50;;;20.50;99.90;;;;;;20663874;28;20234;-78
2023/10/09 20:23:43;;;;;;;5.27;2.00;;;;;;;;;;20652846;28;20290;-77
2023/10/09 20:33:45;;;;;;;2.93;1.90;;;;;;;;;;20638225;28;20239;-77
2023/10/09 20:43:47;;;;;;;4.50;1.73;;;;;;;;;;20634243;28;20779;-78
2023/10/09 20:53:48;;;;;;;3.10;1.67;;;;;;;;;;20650327;28;20210;-78
2023/10/09 21:03:50;;;;;;;3.40;1.90;;;;;;;;;;20655148;28;20245;-77
2023/10/09 21:13:53;;;;;;;3.57;1.87;;;;;;;;;;20648669;28;20222;-78
2023/10/09 21:23:57;;;;;;;3.10;1.50;;;;;;;;;;20643113;28;20281;-78
2023/10/09 21:33:59;;;;;;;4.50;1.70;;;;;;;;;;20640139;28;20270;-77
2023/10/09 21:44:01;;;;;;;3.17;1.57;;;;;;;;;;20668867;28;20238;-78
2023/10/09 21:54:03;;;;;;;6.30;2.00;;;;;;;;;;20660006;28;20601;-77
2023/10/09 22:04:05;;;;;;;4.57;1.97;;;;;;;;;;20669148;28;20223;-77
2023/10/09 22:14:07;;;;;;;3.23;1.50;;;;;;;;;;20653550;28;20229;-77
2023/10/09 22:24:09;;;;;;;4.60;1.83;;;;;;;;;;20672493;28;20226;-77
2023/10/09 22:34:11;;;;;;;2.80;1.70;;;;;;;;;;20671628;28;20248;-77
2023/10/09 22:44:14;;;;;;;3.20;1.60;;;;;;;;;;20662080;28;20210;-76
2023/10/09 22:54:33;;;;;;;3.20;1.43;;;18.80;99.90;;;;;;20668079;28;20218;-78
2023/10/09 23:04:38;;;;;;;2.30;1.40;;;;;;;;;;20664227;28;20241;-77
2023/10/09 23:14:43;;;;;;;3.30;1.70;;;;;;;;;;20675997;28;20218;-78
2023/10/09 23:24:49;;;;;;;3.00;1.63;;;;;;;;;;20670455;28;20226;-77
2023/10/09 23:34:58;;;;;;;2.63;1.47;;;18.40;99.90;;;;;;20662921;28;20699;-77
2023/10/09 23:45:04;;;;;;;4.37;1.67;;;;;;;;;;20659939;28;20221;-77
2023/10/09 23:55:12;;;;;;;2.80;1.57;;;;;;;;;;20660076;28;20216;-77
